Van Kinsbergen — PAKB — position and weather

sailwx.info

Track history (hours):
 
Tides and Currents Weather Stations Pressure Air Temp Water Temp Dewpoint Dewpoint Depression Visibility Wind Speed Wind Dir Waves Ship Positions

Van Kinsbergen

Last reported at 2018-Feb-21 18:04 UTC. Time now 2018-Feb-22 19:24 UTC.
Position N 55°18' E 011°04'.

Length 40 m; draft 3.1 m.

Type: Military. MMSI: 244736000.

Date/timePositionNaut miles runAvg speedWind from/ knotsBaromVisibWave heightAir tempDewpointWater temp
2018-Feb-21 18:04N 55°18' E 011°04'8 8.5
2018-Feb-21 17:07N 55°12' E 011°14'111.6
2018-Feb-21 17:01N 55°12' E 011°15'4 6.9
2018-Feb-21 16:29N 55°15' E 011°12'2 4.0
2018-Feb-21 15:58N 55°17' E 011°11'510.4
2018-Feb-21 15:31N 55°12' E 011°14'5 6.2
2018-Feb-21 14:46N 55°16' E 011°12'2 8.0
2018-Feb-21 14:30N 55°18' E 011°08'5 8.6
2018-Feb-21 13:57N 55°13' E 011°12'2 3.5
2018-Feb-21 13:30N 55°12' E 011°14'5 9.9
2018-Feb-21 12:59N 55°17' E 011°10'1 0.2
2018-Feb-21 09:13N 55°17' E 011°11'310.9
2018-Feb-21 08:59N 55°14' E 011°12'1 2.2
2018-Feb-21 08:31N 55°13' E 011°13'5 9.1
2018-Feb-21 08:00N 55°17' E 011°09'4 8.5
2018-Feb-21 07:28N 55°13' E 011°13'1 1.1
2018-Feb-21 07:00N 55°14' E 011°12'11 1.2
2018-Feb-20 21:54N 55°04' E 011°03'4 9.1
2018-Feb-20 21:28N 55°00' E 011°03'4 8.4
2018-Feb-20 21:00N 54°57' E 010°59'5 9.6
2018-Feb-20 20:30N 54°53' E 010°55'5 9.7
2018-Feb-20 20:00N 54°48' E 010°54'5 9.2
2018-Feb-20 19:30N 54°44' E 010°54'4 9.0
2018-Feb-20 19:00N 54°39' E 010°54'5 9.8
2018-Feb-20 18:31N 54°35' E 010°50'5 9.5
2018-Feb-20 18:00N 54°34' E 010°42'37 6.3
2018-Feb-20 12:11N 54°20' E 009°44'1 8.3
2018-Feb-20 12:00N 54°19' E 009°43'4 7.8
2018-Feb-20 11:30N 54°16' E 009°38'3 6.7
2018-Feb-20 11:00N 54°13' E 009°36'4 8.3
2018-Feb-20 10:30N 54°11' E 009°29'4 8.4
2018-Feb-20 10:00N 54°09' E 009°23'4 7.7
2018-Feb-20 09:29N 54°06' E 009°20'4 8.6
2018-Feb-20 09:00N 54°02' E 009°18'4 8.4
2018-Feb-20 08:29N 53°58' E 009°15'4 8.9
2018-Feb-20 08:00N 53°55' E 009°10'1 2.3
2018-Feb-20 07:28N 53°54' E 009°09'2 4.5
2018-Feb-20 07:00N 53°53' E 009°05'3 6.7
2018-Feb-20 06:31N 53°51' E 009°01'4 7.3
2018-Feb-20 06:00N 53°50' E 008°55'4 7.7
2018-Feb-20 05:30N 53°50' E 008°48'4 7.8
2018-Feb-20 05:00N 53°53' E 008°43'4 8.1
2018-Feb-20 04:29N 53°56' E 008°39'4 7.5
2018-Feb-20 04:00N 53°58' E 008°34'4 8.5
2018-Feb-20 03:30N 53°59' E 008°26'4 7.9
2018-Feb-20 02:59N 53°59' E 008°20'4 8.7
2018-Feb-20 02:29N 53°59' E 008°12'5 8.9
2018-Feb-20 01:59N 53°58' E 008°05'10312.9
2018-Feb-19 18:01N 53°31' E 005°17'012.2
2018-Feb-19 17:59N 53°31' E 005°17'3910.3
2018-Feb-19 14:13N 53°04' E 004°30'3 9.9
2018-Feb-19 13:57N 53°02' E 004°30'410.2
2018-Feb-19 13:30N 52°58' E 004°32'6 9.5
2018-Feb-19 12:56N 52°54' E 004°38'512.5
2018-Feb-19 12:30N 52°58' E 004°43'2 4.6
2018-Feb-19 12:01N 52°58' E 004°47'0 0.1
2018-Feb-19 11:28N 52°58' E 004°47'0 0.0
2018-Feb-19 10:58N 52°58' E 004°47'0 0.0
2018-Feb-19 10:28N 52°58' E 004°47'0 0.0
2018-Feb-19 09:58N 52°58' E 004°47'0 0.0
2018-Feb-19 09:28N 52°58' E 004°47'0 0.0
2018-Feb-19 08:58N 52°58' E 004°47'0 0.0
2018-Feb-19 08:25N 52°58' E 004°47'0 0.0
2018-Feb-19 07:55N 52°58' E 004°47'0 0.0
2018-Feb-19 07:22N 52°58' E 004°47'0 0.0
2018-Feb-19 06:58N 52°58' E 004°47'0 0.0
2018-Feb-19 06:28N 52°58' E 004°47'0 0.0
2018-Feb-19 05:58N 52°58' E 004°47'0 0.0
2018-Feb-19 05:28N 52°58' E 004°47'0 0.0
2018-Feb-19 04:52N 52°58' E 004°47'0 0.0
2018-Feb-19 04:28N 52°58' E 004°47'0 0.0
2018-Feb-19 03:58N 52°58' E 004°47'0 0.0
2018-Feb-19 03:28N 52°58' E 004°47'0 0.0
2018-Feb-19 02:58N 52°58' E 004°47'0 0.0
2018-Feb-19 02:28N 52°58' E 004°47'0 0.0
2018-Feb-19 01:58N 52°58' E 004°47'0 0.0
2018-Feb-19 01:25N 52°58' E 004°47'0 0.0
2018-Feb-19 00:58N 52°58' E 004°47'0 0.0
2018-Feb-19 00:28N 52°58' E 004°47'0 0.0
2018-Feb-18 23:58N 52°58' E 004°47'0 0.0
2018-Feb-18 23:28N 52°58' E 004°47'0 0.0
2018-Feb-18 22:52N 52°58' E 004°47'0 0.0
2018-Feb-18 22:25N 52°58' E 004°47'0 0.0
2018-Feb-18 21:52N 52°58' E 004°47'0 0.0
2018-Feb-18 21:25N 52°58' E 004°47'0 0.0
2018-Feb-18 20:58N 52°58' E 004°47'0 0.0
2018-Feb-18 20:28N 52°58' E 004°47'0 0.0
2018-Feb-18 19:58N 52°58' E 004°47'0 0.0
2018-Feb-18 19:25N 52°58' E 004°47'0 0.0
2018-Feb-18 18:55N 52°58' E 004°47'0 0.0
2018-Feb-18 18:22N 52°58' E 004°47'0 0.0
2018-Feb-18 17:58N 52°58' E 004°47'0 0.0
2018-Feb-18 17:25N 52°58' E 004°47'0 0.0
2018-Feb-18 16:58N 52°58' E 004°47'0 0.0
2018-Feb-18 16:28N 52°58' E 004°47'0 0.0
2018-Feb-18 15:55N 52°58' E 004°47'0 0.0
2018-Feb-18 15:28N 52°58' E 004°47'0 0.0
2018-Feb-18 14:52N 52°58' E 004°47'0 0.0
2018-Feb-18 14:25N 52°58' E 004°47'0 0.0
2018-Feb-18 13:58N 52°58' E 004°47'0 0.0
2018-Feb-18 13:28N 52°58' E 004°47'0 0.0
2018-Feb-18 12:52N 52°58' E 004°47'0 0.0
2018-Feb-18 12:28N 52°58' E 004°47'0 0.0
2018-Feb-18 11:58N 52°58' E 004°47'0 0.0
2018-Feb-18 11:25N 52°58' E 004°47'0 0.0
2018-Feb-18 10:58N 52°58' E 004°47'0 0.0
2018-Feb-18 10:28N 52°58' E 004°47'0 0.0
2018-Feb-18 09:55N 52°58' E 004°47'0 0.0
2018-Feb-18 09:28N 52°58' E 004°47'0 0.0
2018-Feb-18 08:55N 52°58' E 004°47'0 0.0
2018-Feb-18 08:25N 52°58' E 004°47'0 0.0
2018-Feb-18 07:58N 52°58' E 004°47'0 0.0
2018-Feb-18 07:25N 52°58' E 004°47'0 0.0
2018-Feb-18 06:52N 52°58' E 004°47'0 0.0
2018-Feb-18 06:28N 52°58' E 004°47'0 0.0
2018-Feb-18 05:58N 52°58' E 004°47'0 0.0
2018-Feb-18 05:28N 52°58' E 004°47'0 0.0
2018-Feb-18 04:55N 52°58' E 004°47'0 0.0
2018-Feb-18 04:25N 52°58' E 004°47'0 0.0
2018-Feb-18 03:58N 52°58' E 004°47'0 0.0
2018-Feb-18 03:25N 52°58' E 004°47'0 0.0
2018-Feb-18 02:55N 52°58' E 004°47'0 0.0
2018-Feb-18 02:28N 52°58' E 004°47'0 0.0
2018-Feb-18 01:55N 52°58' E 004°47'0 0.0
2018-Feb-18 01:28N 52°58' E 004°47'0 0.0
2018-Feb-18 00:55N 52°58' E 004°47'0 0.0
2018-Feb-18 00:28N 52°58' E 004°47'0 0.0
2018-Feb-17 23:58N 52°58' E 004°47'0 0.0
2018-Feb-17 23:28N 52°58' E 004°47'0 0.0
2018-Feb-17 22:49N 52°58' E 004°47'0 0.0
2018-Feb-17 22:25N 52°58' E 004°47'0 0.0
2018-Feb-17 21:58N 52°58' E 004°47'0 0.0
2018-Feb-17 21:28N 52°58' E 004°47'0 0.0
2018-Feb-17 20:58N 52°58' E 004°47'0 0.0
2018-Feb-17 20:25N 52°58' E 004°47'0 0.0
2018-Feb-17 19:52N 52°58' E 004°47'0 0.0
2018-Feb-17 19:28N 52°58' E 004°47'0 0.0
2018-Feb-17 18:58N 52°58' E 004°47'0 0.0
2018-Feb-17 18:28N 52°58' E 004°47'0 0.0
2018-Feb-17 17:58N 52°58' E 004°47'0 0.0
2018-Feb-17 17:28N 52°58' E 004°47'0 0.0
2018-Feb-17 16:58N 52°58' E 004°47'0 0.0
2018-Feb-17 16:28N 52°58' E 004°47'0 0.0
2018-Feb-17 15:58N 52°58' E 004°47'0 0.0
2018-Feb-17 15:25N 52°58' E 004°47'0 0.0
2018-Feb-17 14:58N 52°58' E 004°47'0 0.0
2018-Feb-17 14:28N 52°58' E 004°47'0 0.0
2018-Feb-17 13:58N 52°58' E 004°47'0 0.0
2018-Feb-17 13:25N 52°58' E 004°47'0 0.0
2018-Feb-17 12:58N 52°58' E 004°47'0 0.0
2018-Feb-17 12:25N 52°58' E 004°47'0 0.0
2018-Feb-17 11:58N 52°58' E 004°47'0 0.0
2018-Feb-17 11:25N 52°58' E 004°47'0 0.0
2018-Feb-17 10:52N 52°58' E 004°47'0 0.0
2018-Feb-17 10:25N 52°58' E 004°47'0 0.0
2018-Feb-17 09:58N 52°58' E 004°47'0 0.0
2018-Feb-17 09:28N 52°58' E 004°47'0 0.0
2018-Feb-17 08:58N 52°58' E 004°47'0 0.0
2018-Feb-17 08:28N 52°58' E 004°47'0 0.0
2018-Feb-17 07:58N 52°58' E 004°47'0 0.0
2018-Feb-17 07:25N 52°58' E 004°47'0 0.0
2018-Feb-17 06:58N 52°58' E 004°47'0 0.0
2018-Feb-17 06:25N 52°58' E 004°47'0 0.0
2018-Feb-17 05:58N 52°58' E 004°47'0 0.0
2018-Feb-17 05:25N 52°58' E 004°47'0 0.0
2018-Feb-17 04:58N 52°58' E 004°47'0 0.0
2018-Feb-17 04:25N 52°58' E 004°47'0 0.0
2018-Feb-17 03:58N 52°58' E 004°47'0 0.0
2018-Feb-17 03:19N 52°58' E 004°47'0 0.0
2018-Feb-17 02:58N 52°58' E 004°47'0 0.0
2018-Feb-17 02:28N 52°58' E 004°47'0 0.0
2018-Feb-17 01:55N 52°58' E 004°47'0 0.0
2018-Feb-17 01:28N 52°58' E 004°47'0 0.0
2018-Feb-17 00:58N 52°58' E 004°47'0 0.0
2018-Feb-17 00:28N 52°58' E 004°47'0 0.0
2018-Feb-16 23:58N 52°58' E 004°47'0 0.0
2018-Feb-16 23:28N 52°58' E 004°47'0 0.0
2018-Feb-16 22:52N 52°58' E 004°47'0 0.0
2018-Feb-16 22:16N 52°58' E 004°47'0 0.0
2018-Feb-16 21:58N 52°58' E 004°47'0 0.0
2018-Feb-16 21:25N 52°58' E 004°47'0 0.0
2018-Feb-16 20:55N 52°58' E 004°47'0 0.0
2018-Feb-16 20:22N 52°58' E 004°47'0 0.0
2018-Feb-16 19:58N 52°58' E 004°47'0 0.0
2018-Feb-16 19:28N 52°58' E 004°47'0 0.0
2018-Feb-16 18:58N 52°58' E 004°47'0 0.0
2018-Feb-16 18:28N 52°58' E 004°47'0 0.0
2018-Feb-16 17:58N 52°58' E 004°47'0 0.0
2018-Feb-16 17:28N 52°58' E 004°47'0 0.0
2018-Feb-16 16:58N 52°58' E 004°47'0 0.0
2018-Feb-16 16:25N 52°58' E 004°47'0 0.0
2018-Feb-16 15:55N 52°58' E 004°47'0 0.0
2018-Feb-16 15:25N 52°58' E 004°47'0 0.0
2018-Feb-16 14:55N 52°58' E 004°47'0 0.0
2018-Feb-16 14:28N 52°58' E 004°47'0 0.0
2018-Feb-16 13:52N 52°58' E 004°47'0 0.0
2018-Feb-16 13:28N 52°58' E 004°47'0 0.0
2018-Feb-16 12:52N 52°58' E 004°47'0 0.0
2018-Feb-16 12:28N 52°58' E 004°47'0 0.0
2018-Feb-16 11:58N 52°58' E 004°47'0 0.0
2018-Feb-16 11:28N 52°58' E 004°47'0 0.0
2018-Feb-16 10:58N 52°58' E 004°47'0 0.0
2018-Feb-16 10:22N 52°58' E 004°47'0 0.0
2018-Feb-16 09:49N 52°58' E 004°47'0 0.0
2018-Feb-16 09:28N 52°58' E 004°47'0 0.0
2018-Feb-16 08:52N 52°58' E 004°47'0 0.0
2018-Feb-16 08:25N 52°58' E 004°47'0 0.0
2018-Feb-16 07:58N 52°58' E 004°47'0 0.0
2018-Feb-16 07:28N 52°58' E 004°47'0 0.0
2018-Feb-16 06:58N 52°58' E 004°47'0 0.0
2018-Feb-16 06:25N 52°58' E 004°47'0 0.0
2018-Feb-16 05:58N 52°58' E 004°47'0 0.0
2018-Feb-16 05:28N 52°58' E 004°47'0 0.0
2018-Feb-16 04:52N 52°58' E 004°47'0 0.0
2018-Feb-16 04:28N 52°58' E 004°47'0 0.0
2018-Feb-16 03:55N 52°58' E 004°47'0 0.0
2018-Feb-16 03:25N 52°58' E 004°47'0 0.0
2018-Feb-16 02:58N 52°58' E 004°47'0 0.0
2018-Feb-16 02:28N 52°58' E 004°47'0 0.0
2018-Feb-16 01:55N 52°58' E 004°47'0 0.0
2018-Feb-16 01:22N 52°58' E 004°47'0 0.0
2018-Feb-16 00:58N 52°58' E 004°47'0 0.0
2018-Feb-16 00:28N 52°58' E 004°47'0 0.0
2018-Feb-15 23:49N 52°58' E 004°47'0 0.0
2018-Feb-15 23:13N 52°58' E 004°47'0 0.0
2018-Feb-15 22:55N 52°58' E 004°47'0 0.0
2018-Feb-15 22:22N 52°58' E 004°47'0 0.0
2018-Feb-15 21:58N 52°58' E 004°47'0 0.0
2018-Feb-15 21:22N 52°58' E 004°47'0 0.0
2018-Feb-15 20:58N 52°58' E 004°47'0 0.0
2018-Feb-15 20:28N 52°58' E 004°47'0 0.0
2018-Feb-15 19:55N 52°58' E 004°47'0 0.0
2018-Feb-15 19:25N 52°58' E 004°47'0 0.0
2018-Feb-15 18:58N 52°58' E 004°47'0 0.0
2018-Feb-15 18:25N 52°58' E 004°47'0 0.0
2018-Feb-15 17:55N 52°58' E 004°47'0 0.0
2018-Feb-15 17:28N 52°58' E 004°47'0 0.0
2018-Feb-15 16:55N 52°58' E 004°47'0 0.0
2018-Feb-15 16:25N 52°58' E 004°47'0 0.0
2018-Feb-15 15:52N 52°58' E 004°47'0 0.0
2018-Feb-15 15:28N 52°58' E 004°47'0 0.0
2018-Feb-15 14:55N 52°58' E 004°47'0 0.0
2018-Feb-15 14:28N 52°58' E 004°47'0 0.0
2018-Feb-15 13:55N 52°58' E 004°47'0 0.0
2018-Feb-15 13:19N 52°58' E 004°47'0 0.0
2018-Feb-15 12:58N 52°58' E 004°47'0 0.0
2018-Feb-15 12:28N 52°58' E 004°47'0 0.0
2018-Feb-15 11:58N 52°58' E 004°47'0 0.0
2018-Feb-15 11:10N 52°58' E 004°47'0 0.0
2018-Feb-15 10:55N 52°58' E 004°47'0 0.0
2018-Feb-15 10:25N 52°58' E 004°47'0 0.0
2018-Feb-15 09:58N 52°58' E 004°47'0 0.0
2018-Feb-15 09:28N 52°58' E 004°47'0 0.0
2018-Feb-15 08:55N 52°58' E 004°47'0 0.0
2018-Feb-15 08:25N 52°58' E 004°47'0 0.0
2018-Feb-15 07:58N 52°58' E 004°47'0 0.0
2018-Feb-15 07:28N 52°58' E 004°47'0 0.0
2018-Feb-15 06:58N 52°58' E 004°47'0 0.0
2018-Feb-15 06:25N 52°58' E 004°47'0 0.0
2018-Feb-15 05:58N 52°58' E 004°47'0 0.0
2018-Feb-15 05:28N 52°58' E 004°47'0 0.0
2018-Feb-15 04:55N 52°58' E 004°47'0 0.0
2018-Feb-15 04:28N 52°58' E 004°47'0 0.0
2018-Feb-15 03:58N 52°58' E 004°47'0 0.0
2018-Feb-15 03:28N 52°58' E 004°47'0 0.0
2018-Feb-15 02:49N 52°58' E 004°47'0 0.0
2018-Feb-15 02:25N 52°58' E 004°47'0 0.0
2018-Feb-15 01:58N 52°58' E 004°47'0 0.0
2018-Feb-15 01:28N 52°58' E 004°47'0 0.0
2018-Feb-15 00:58N 52°58' E 004°47'0 0.0
2018-Feb-15 00:28N 52°58' E 004°47'0 0.0
2018-Feb-14 23:43N 52°58' E 004°47'0 0.0
2018-Feb-14 23:28N 52°58' E 004°47'0 0.0
2018-Feb-14 22:58N 52°58' E 004°47'0 0.0
2018-Feb-14 22:25N 52°58' E 004°47'0 0.0
2018-Feb-14 21:55N 52°58' E 004°47'0 0.0
2018-Feb-14 21:25N 52°58' E 004°47'0 0.0
2018-Feb-14 20:58N 52°58' E 004°47'0 0.0
2018-Feb-14 20:25N 52°58' E 004°47'0 0.0
2018-Feb-14 19:58N 52°58' E 004°47'0 0.0
2018-Feb-14 19:22N 52°58' E 004°47'0 0.0
2018-Feb-14 18:58N 52°58' E 004°47'0 0.0
2018-Feb-14 18:28N 52°58' E 004°47'0 0.0
2018-Feb-14 17:58N 52°58' E 004°47'0 0.0
2018-Feb-14 17:28N 52°58' E 004°47'0 0.0
2018-Feb-14 16:58N 52°58' E 004°47'0 0.0
2018-Feb-14 16:28N 52°58' E 004°47'0 0.0
2018-Feb-14 15:58N 52°58' E 004°47'0 0.0
2018-Feb-14 15:28N 52°58' E 004°47'0 0.0
2018-Feb-14 14:52N 52°58' E 004°47'0 0.0
2018-Feb-14 14:28N 52°58' E 004°47'0 0.0
2018-Feb-14 13:58N 52°58' E 004°47'0 0.0
2018-Feb-14 13:28N 52°58' E 004°47'0 0.0
2018-Feb-14 12:58N 52°58' E 004°47'0 0.0
2018-Feb-14 12:28N 52°58' E 004°47'0 0.0
2018-Feb-14 11:58N 52°58' E 004°47'0 0.0
2018-Feb-14 11:25N 52°58' E 004°47'0 0.0
2018-Feb-14 10:55N 52°58' E 004°47'0 0.0
2018-Feb-14 10:28N 52°58' E 004°47'0 0.0
2018-Feb-14 09:58N 52°58' E 004°47'0 0.0
2018-Feb-14 09:28N 52°58' E 004°47'0 0.0
2018-Feb-14 08:58N 52°58' E 004°47'0 0.0
2018-Feb-14 08:28N 52°58' E 004°47'0 0.0
2018-Feb-14 07:58N 52°58' E 004°47'0 0.0
2018-Feb-14 07:13N 52°58' E 004°47'0 0.0
2018-Feb-14 06:55N 52°58' E 004°47'0 0.0
2018-Feb-14 06:25N 52°58' E 004°47'0 0.0
2018-Feb-14 05:52N 52°58' E 004°47'0 0.0
2018-Feb-14 05:28N 52°58' E 004°47'0 0.0
2018-Feb-14 04:58N 52°58' E 004°47'0 0.0
2018-Feb-14 04:28N 52°58' E 004°47'0 0.0
2018-Feb-14 03:58N 52°58' E 004°47'0 0.0
2018-Feb-14 03:28N 52°58' E 004°47'0 0.0
2018-Feb-14 02:58N 52°58' E 004°47'0 0.0
2018-Feb-14 02:22N 52°58' E 004°47'0 0.0
2018-Feb-14 01:58N 52°58' E 004°47'0 0.0
2018-Feb-14 01:28N 52°58' E 004°47'0 0.0
2018-Feb-14 00:58N 52°58' E 004°47'0 0.0
2018-Feb-14 00:25N 52°58' E 004°47'0 0.0
2018-Feb-13 23:58N 52°58' E 004°47'0 0.0
2018-Feb-13 23:28N 52°58' E 004°47'0 0.0
2018-Feb-13 22:55N 52°58' E 004°47'0 0.0
2018-Feb-13 22:28N 52°58' E 004°47'0 0.0
2018-Feb-13 21:55N 52°58' E 004°47'0 0.0
2018-Feb-13 21:25N 52°58' E 004°47'0 0.0
2018-Feb-13 20:58N 52°58' E 004°47'0 0.0
2018-Feb-13 20:28N 52°58' E 004°47'0 0.0
2018-Feb-13 19:58N 52°58' E 004°47'0 0.0
2018-Feb-13 19:22N 52°58' E 004°47'0 0.0
2018-Feb-13 18:55N 52°58' E 004°47'0 0.0
2018-Feb-13 18:28N 52°58' E 004°47'0 0.0
2018-Feb-13 17:58N 52°58' E 004°47'0 0.0
2018-Feb-13 17:22N 52°58' E 004°47'0 0.0
2018-Feb-13 16:58N 52°58' E 004°47'0 0.0
2018-Feb-13 16:28N 52°58' E 004°47'0 0.0
2018-Feb-13 15:58N 52°58' E 004°47'0 0.0
2018-Feb-13 15:28N 52°58' E 004°47'0 0.0
2018-Feb-13 14:58N 52°58' E 004°47'0 0.0
2018-Feb-13 14:25N 52°58' E 004°47'0 0.0
2018-Feb-13 13:58N 52°58' E 004°47'0 0.0
2018-Feb-13 13:25N 52°58' E 004°47'0 0.0
2018-Feb-13 12:58N 52°58' E 004°47'0 0.0
2018-Feb-13 12:28N 52°58' E 004°47'0 0.0
2018-Feb-13 11:58N 52°58' E 004°47'0 0.0
2018-Feb-13 11:28N 52°58' E 004°47'0 0.0
2018-Feb-13 10:55N 52°58' E 004°47'0 0.0
2018-Feb-13 10:25N 52°58' E 004°47'0 0.0
2018-Feb-13 09:58N 52°58' E 004°47'0 0.0
2018-Feb-13 09:28N 52°58' E 004°47'0 0.0
2018-Feb-13 08:55N 52°58' E 004°47'0 0.0
2018-Feb-13 08:22N 52°58' E 004°47'0 0.0
2018-Feb-13 07:58N 52°58' E 004°47'0 0.0
2018-Feb-13 07:28N 52°58' E 004°47'0 0.0
2018-Feb-13 06:58N 52°58' E 004°47'0 0.0
2018-Feb-13 06:28N 52°58' E 004°47'0 0.0
2018-Feb-13 05:58N 52°58' E 004°47'0 0.0
2018-Feb-13 05:25N 52°58' E 004°47'0 0.0
2018-Feb-13 04:55N 52°58' E 004°47'0 0.0
2018-Feb-13 04:28N 52°58' E 004°47'0 0.0
2018-Feb-13 03:58N 52°58' E 004°47'0 0.0
2018-Feb-13 03:25N 52°58' E 004°47'0 0.0
2018-Feb-13 02:58N 52°58' E 004°47'0 0.0
2018-Feb-13 02:28N 52°58' E 004°47'0 0.0
2018-Feb-13 01:58N 52°58' E 004°47'0 0.0
2018-Feb-13 01:28N 52°58' E 004°47'0 0.0
2018-Feb-13 00:58N 52°58' E 004°47'0 0.0
2018-Feb-13 00:28N 52°58' E 004°47'0 0.0
2018-Feb-12 23:58N 52°58' E 004°47'0 0.0
2018-Feb-12 23:28N 52°58' E 004°47'0 0.0
2018-Feb-12 22:58N 52°58' E 004°47'0 0.0
2018-Feb-12 22:28N 52°58' E 004°47'0 0.0
2018-Feb-12 21:58N 52°58' E 004°47'0 0.0
2018-Feb-12 21:28N 52°58' E 004°47'0 0.0
2018-Feb-12 20:55N 52°58' E 004°47'0 0.0
2018-Feb-12 20:28N 52°58' E 004°47'0 0.0
2018-Feb-12 19:55N 52°58' E 004°47'0 0.0
2018-Feb-12 19:28N 52°58' E 004°47'0 0.0
2018-Feb-12 18:55N 52°58' E 004°47'0 0.0
2018-Feb-12 18:28N 52°58' E 004°47'0 0.0
2018-Feb-12 17:55N 52°58' E 004°47'0 0.0
2018-Feb-12 17:28N 52°58' E 004°47'0 0.0
2018-Feb-12 16:58N 52°58' E 004°47'0 0.0
2018-Feb-12 16:28N 52°58' E 004°47'0 0.0
2018-Feb-12 15:55N 52°58' E 004°47'0 0.0
2018-Feb-12 15:10N 52°58' E 004°47'0 0.0
2018-Feb-12 14:58N 52°58' E 004°47'0 0.0
2018-Feb-12 14:25N 52°58' E 004°47'0 0.0
2018-Feb-12 13:58N 52°58' E 004°47'0 0.0
2018-Feb-12 13:28N 52°58' E 004°47'0 0.0
2018-Feb-12 12:55N 52°58' E 004°47'0 0.0
2018-Feb-12 12:22N 52°58' E 004°47'0 0.0
2018-Feb-12 11:49N 52°58' E 004°47'0 0.0
2018-Feb-12 11:25N 52°58' E 004°47'0 0.0
2018-Feb-12 10:58N 52°58' E 004°47'0 0.0
2018-Feb-12 10:25N 52°58' E 004°47'0 0.0
2018-Feb-12 09:55N 52°58' E 004°47'0 0.0
2018-Feb-12 09:25N 52°58' E 004°47'0 0.0
2018-Feb-12 08:58N 52°58' E 004°47'0 0.0
2018-Feb-12 08:22N 52°58' E 004°47'0 0.0
2018-Feb-12 07:55N 52°58' E 004°47'0 0.0
2018-Feb-12 07:28N 52°58' E 004°47'0 0.0
2018-Feb-12 06:49N 52°58' E 004°47'0 0.0
2018-Feb-12 06:25N 52°58' E 004°47'0 0.0
2018-Feb-12 05:58N 52°58' E 004°47'0 0.0
2018-Feb-12 05:28N 52°58' E 004°47'0 0.0
2018-Feb-12 04:55N 52°58' E 004°47'0 0.0
2018-Feb-12 04:28N 52°58' E 004°47'0 0.0
2018-Feb-12 03:58N 52°58' E 004°47'0 0.0
2018-Feb-12 03:10N 52°58' E 004°47'0 0.0
2018-Feb-12 02:58N 52°58' E 004°47'0 0.0
2018-Feb-12 02:25N 52°58' E 004°47'0 0.0
2018-Feb-12 01:49N 52°58' E 004°47'0 0.0
2018-Feb-12 01:19N 52°58' E 004°47'0 0.0
2018-Feb-12 00:58N 52°58' E 004°47'0 0.0
2018-Feb-12 00:28N 52°58' E 004°47'0 0.0
2018-Feb-11 23:58N 52°58' E 004°47'0 0.0
2018-Feb-11 23:22N 52°58' E 004°47'0 0.0
2018-Feb-11 22:58N 52°58' E 004°47'0 0.0
2018-Feb-11 22:28N 52°58' E 004°47'0 0.0
2018-Feb-11 21:58N 52°58' E 004°47'0 0.0
2018-Feb-11 21:22N 52°58' E 004°47'0 0.0
2018-Feb-11 20:58N 52°58' E 004°47'0 0.0
2018-Feb-11 20:28N 52°58' E 004°47'0 0.0
2018-Feb-11 19:58N 52°58' E 004°47'0 0.0
2018-Feb-11 19:28N 52°58' E 004°47'0 0.0
2018-Feb-11 18:55N 52°58' E 004°47'0 0.0
2018-Feb-11 18:28N 52°58' E 004°47'  
Track history (hours):
 
Tides and Currents Weather Stations Pressure Air Temp Water Temp Dewpoint Dewpoint Depression Visibility Wind Speed Wind Dir Waves Ship Positions

Van Kinsbergen

Last reported at 2018-Feb-21 18:04 UTC. Time now 2018-Feb-22 19:24 UTC.
Position N 55°18' E 011°04'.

Length 40 m; draft 3.1 m.

Type: Military. MMSI: 244736000.

Date/timePositionNaut miles runAvg speedWind from/ knotsBaromVisibWave heightAir tempDewpointWater temp
2018-Feb-21 18:04N 55°18' E 011°04'8 8.5
2018-Feb-21 17:07N 55°12' E 011°14'111.6
2018-Feb-21 17:01N 55°12' E 011°15'4 6.9
2018-Feb-21 16:29N 55°15' E 011°12'2 4.0
2018-Feb-21 15:58N 55°17' E 011°11'510.4
2018-Feb-21 15:31N 55°12' E 011°14'5 6.2
2018-Feb-21 14:46N 55°16' E 011°12'2 8.0
2018-Feb-21 14:30N 55°18' E 011°08'5 8.6
2018-Feb-21 13:57N 55°13' E 011°12'2 3.5
2018-Feb-21 13:30N 55°12' E 011°14'5 9.9
2018-Feb-21 12:59N 55°17' E 011°10'1 0.2
2018-Feb-21 09:13N 55°17' E 011°11'310.9
2018-Feb-21 08:59N 55°14' E 011°12'1 2.2
2018-Feb-21 08:31N 55°13' E 011°13'5 9.1
2018-Feb-21 08:00N 55°17' E 011°09'4 8.5
2018-Feb-21 07:28N 55°13' E 011°13'1 1.1
2018-Feb-21 07:00N 55°14' E 011°12'11 1.2
2018-Feb-20 21:54N 55°04' E 011°03'4 9.1
2018-Feb-20 21:28N 55°00' E 011°03'4 8.4
2018-Feb-20 21:00N 54°57' E 010°59'5 9.6
2018-Feb-20 20:30N 54°53' E 010°55'5 9.7
2018-Feb-20 20:00N 54°48' E 010°54'5 9.2
2018-Feb-20 19:30N 54°44' E 010°54'4 9.0
2018-Feb-20 19:00N 54°39' E 010°54'5 9.8
2018-Feb-20 18:31N 54°35' E 010°50'5 9.5
2018-Feb-20 18:00N 54°34' E 010°42'37 6.3
2018-Feb-20 12:11N 54°20' E 009°44'1 8.3
2018-Feb-20 12:00N 54°19' E 009°43'4 7.8
2018-Feb-20 11:30N 54°16' E 009°38'3 6.7
2018-Feb-20 11:00N 54°13' E 009°36'4 8.3
2018-Feb-20 10:30N 54°11' E 009°29'4 8.4
2018-Feb-20 10:00N 54°09' E 009°23'4 7.7
2018-Feb-20 09:29N 54°06' E 009°20'4 8.6
2018-Feb-20 09:00N 54°02' E 009°18'4 8.4
2018-Feb-20 08:29N 53°58' E 009°15'4 8.9
2018-Feb-20 08:00N 53°55' E 009°10'1 2.3
2018-Feb-20 07:28N 53°54' E 009°09'2 4.5
2018-Feb-20 07:00N 53°53' E 009°05'3 6.7
2018-Feb-20 06:31N 53°51' E 009°01'4 7.3
2018-Feb-20 06:00N 53°50' E 008°55'4 7.7
2018-Feb-20 05:30N 53°50' E 008°48'4 7.8
2018-Feb-20 05:00N 53°53' E 008°43'4 8.1
2018-Feb-20 04:29N 53°56' E 008°39'4 7.5
2018-Feb-20 04:00N 53°58' E 008°34'4 8.5
2018-Feb-20 03:30N 53°59' E 008°26'4 7.9
2018-Feb-20 02:59N 53°59' E 008°20'4 8.7
2018-Feb-20 02:29N 53°59' E 008°12'5 8.9
2018-Feb-20 01:59N 53°58' E 008°05'10312.9
2018-Feb-19 18:01N 53°31' E 005°17'012.2
2018-Feb-19 17:59N 53°31' E 005°17'3910.3
2018-Feb-19 14:13N 53°04' E 004°30'3 9.9
2018-Feb-19 13:57N 53°02' E 004°30'410.2
2018-Feb-19 13:30N 52°58' E 004°32'6 9.5
2018-Feb-19 12:56N 52°54' E 004°38'512.5
2018-Feb-19 12:30N 52°58' E 004°43'2 4.6
2018-Feb-19 12:01N 52°58' E 004°47'0 0.1
2018-Feb-19 11:28N 52°58' E 004°47'0 0.0
2018-Feb-19 10:58N 52°58' E 004°47'0 0.0
2018-Feb-19 10:28N 52°58' E 004°47'0 0.0
2018-Feb-19 09:58N 52°58' E 004°47'0 0.0
2018-Feb-19 09:28N 52°58' E 004°47'0 0.0
2018-Feb-19 08:58N 52°58' E 004°47'0 0.0
2018-Feb-19 08:25N 52°58' E 004°47'0 0.0
2018-Feb-19 07:55N 52°58' E 004°47'0 0.0
2018-Feb-19 07:22N 52°58' E 004°47'0 0.0
2018-Feb-19 06:58N 52°58' E 004°47'0 0.0
2018-Feb-19 06:28N 52°58' E 004°47'0 0.0
2018-Feb-19 05:58N 52°58' E 004°47'0 0.0
2018-Feb-19 05:28N 52°58' E 004°47'0 0.0
2018-Feb-19 04:52N 52°58' E 004°47'0 0.0
2018-Feb-19 04:28N 52°58' E 004°47'0 0.0
2018-Feb-19 03:58N 52°58' E 004°47'0 0.0
2018-Feb-19 03:28N 52°58' E 004°47'0 0.0
2018-Feb-19 02:58N 52°58' E 004°47'0 0.0
2018-Feb-19 02:28N 52°58' E 004°47'0 0.0
2018-Feb-19 01:58N 52°58' E 004°47'0 0.0
2018-Feb-19 01:25N 52°58' E 004°47'0 0.0
2018-Feb-19 00:58N 52°58' E 004°47'0 0.0
2018-Feb-19 00:28N 52°58' E 004°47'0 0.0
2018-Feb-18 23:58N 52°58' E 004°47'0 0.0
2018-Feb-18 23:28N 52°58' E 004°47'0 0.0
2018-Feb-18 22:52N 52°58' E 004°47'0 0.0
2018-Feb-18 22:25N 52°58' E 004°47'0 0.0
2018-Feb-18 21:52N 52°58' E 004°47'0 0.0
2018-Feb-18 21:25N 52°58' E 004°47'0 0.0
2018-Feb-18 20:58N 52°58' E 004°47'0 0.0
2018-Feb-18 20:28N 52°58' E 004°47'0 0.0
2018-Feb-18 19:58N 52°58' E 004°47'0 0.0
2018-Feb-18 19:25N 52°58' E 004°47'0 0.0
2018-Feb-18 18:55N 52°58' E 004°47'0 0.0
2018-Feb-18 18:22N 52°58' E 004°47'0 0.0
2018-Feb-18 17:58N 52°58' E 004°47'0 0.0
2018-Feb-18 17:25N 52°58' E 004°47'0 0.0
2018-Feb-18 16:58N 52°58' E 004°47'0 0.0
2018-Feb-18 16:28N 52°58' E 004°47'0 0.0
2018-Feb-18 15:55N 52°58' E 004°47'0 0.0
2018-Feb-18 15:28N 52°58' E 004°47'0 0.0
2018-Feb-18 14:52N 52°58' E 004°47'0 0.0
2018-Feb-18 14:25N 52°58' E 004°47'0 0.0
2018-Feb-18 13:58N 52°58' E 004°47'0 0.0
2018-Feb-18 13:28N 52°58' E 004°47'0 0.0
2018-Feb-18 12:52N 52°58' E 004°47'0 0.0
2018-Feb-18 12:28N 52°58' E 004°47'0 0.0
2018-Feb-18 11:58N 52°58' E 004°47'0 0.0
2018-Feb-18 11:25N 52°58' E 004°47'0 0.0
2018-Feb-18 10:58N 52°58' E 004°47'0 0.0
2018-Feb-18 10:28N 52°58' E 004°47'0 0.0
2018-Feb-18 09:55N 52°58' E 004°47'0 0.0
2018-Feb-18 09:28N 52°58' E 004°47'0 0.0
2018-Feb-18 08:55N 52°58' E 004°47'0 0.0
2018-Feb-18 08:25N 52°58' E 004°47'0 0.0
2018-Feb-18 07:58N 52°58' E 004°47'0 0.0
2018-Feb-18 07:25N 52°58' E 004°47'0 0.0
2018-Feb-18 06:52N 52°58' E 004°47'0 0.0
2018-Feb-18 06:28N 52°58' E 004°47'0 0.0
2018-Feb-18 05:58N 52°58' E 004°47'0 0.0
2018-Feb-18 05:28N 52°58' E 004°47'0 0.0
2018-Feb-18 04:55N 52°58' E 004°47'0 0.0
2018-Feb-18 04:25N 52°58' E 004°47'0 0.0
2018-Feb-18 03:58N 52°58' E 004°47'0 0.0
2018-Feb-18 03:25N 52°58' E 004°47'0 0.0
2018-Feb-18 02:55N 52°58' E 004°47'0 0.0
2018-Feb-18 02:28N 52°58' E 004°47'0 0.0
2018-Feb-18 01:55N 52°58' E 004°47'0 0.0
2018-Feb-18 01:28N 52°58' E 004°47'0 0.0
2018-Feb-18 00:55N 52°58' E 004°47'0 0.0
2018-Feb-18 00:28N 52°58' E 004°47'0 0.0
2018-Feb-17 23:58N 52°58' E 004°47'0 0.0
2018-Feb-17 23:28N 52°58' E 004°47'0 0.0
2018-Feb-17 22:49N 52°58' E 004°47'0 0.0
2018-Feb-17 22:25N 52°58' E 004°47'0 0.0
2018-Feb-17 21:58N 52°58' E 004°47'0 0.0
2018-Feb-17 21:28N 52°58' E 004°47'0 0.0
2018-Feb-17 20:58N 52°58' E 004°47'0 0.0
2018-Feb-17 20:25N 52°58' E 004°47'0 0.0
2018-Feb-17 19:52N 52°58' E 004°47'0 0.0
2018-Feb-17 19:28N 52°58' E 004°47'0 0.0
2018-Feb-17 18:58N 52°58' E 004°47'0 0.0
2018-Feb-17 18:28N 52°58' E 004°47'0 0.0
2018-Feb-17 17:58N 52°58' E 004°47'0 0.0
2018-Feb-17 17:28N 52°58' E 004°47'0 0.0
2018-Feb-17 16:58N 52°58' E 004°47'0 0.0
2018-Feb-17 16:28N 52°58' E 004°47'0 0.0
2018-Feb-17 15:58N 52°58' E 004°47'0 0.0
2018-Feb-17 15:25N 52°58' E 004°47'0 0.0
2018-Feb-17 14:58N 52°58' E 004°47'0 0.0
2018-Feb-17 14:28N 52°58' E 004°47'0 0.0
2018-Feb-17 13:58N 52°58' E 004°47'0 0.0
2018-Feb-17 13:25N 52°58' E 004°47'0 0.0
2018-Feb-17 12:58N 52°58' E 004°47'0 0.0
2018-Feb-17 12:25N 52°58' E 004°47'0 0.0
2018-Feb-17 11:58N 52°58' E 004°47'0 0.0
2018-Feb-17 11:25N 52°58' E 004°47'0 0.0
2018-Feb-17 10:52N 52°58' E 004°47'0 0.0
2018-Feb-17 10:25N 52°58' E 004°47'0 0.0
2018-Feb-17 09:58N 52°58' E 004°47'0 0.0
2018-Feb-17 09:28N 52°58' E 004°47'0 0.0
2018-Feb-17 08:58N 52°58' E 004°47'0 0.0
2018-Feb-17 08:28N 52°58' E 004°47'0 0.0
2018-Feb-17 07:58N 52°58' E 004°47'0 0.0
2018-Feb-17 07:25N 52°58' E 004°47'0 0.0
2018-Feb-17 06:58N 52°58' E 004°47'0 0.0
2018-Feb-17 06:25N 52°58' E 004°47'0 0.0
2018-Feb-17 05:58N 52°58' E 004°47'0 0.0
2018-Feb-17 05:25N 52°58' E 004°47'0 0.0
2018-Feb-17 04:58N 52°58' E 004°47'0 0.0
2018-Feb-17 04:25N 52°58' E 004°47'0 0.0
2018-Feb-17 03:58N 52°58' E 004°47'0 0.0
2018-Feb-17 03:19N 52°58' E 004°47'0 0.0
2018-Feb-17 02:58N 52°58' E 004°47'0 0.0
2018-Feb-17 02:28N 52°58' E 004°47'0 0.0
2018-Feb-17 01:55N 52°58' E 004°47'0 0.0
2018-Feb-17 01:28N 52°58' E 004°47'0 0.0
2018-Feb-17 00:58N 52°58' E 004°47'0 0.0
2018-Feb-17 00:28N 52°58' E 004°47'0 0.0
2018-Feb-16 23:58N 52°58' E 004°47'0 0.0
2018-Feb-16 23:28N 52°58' E 004°47'0 0.0
2018-Feb-16 22:52N 52°58' E 004°47'0 0.0
2018-Feb-16 22:16N 52°58' E 004°47'0 0.0
2018-Feb-16 21:58N 52°58' E 004°47'0 0.0
2018-Feb-16 21:25N 52°58' E 004°47'0 0.0
2018-Feb-16 20:55N 52°58' E 004°47'0 0.0
2018-Feb-16 20:22N 52°58' E 004°47'0 0.0
2018-Feb-16 19:58N 52°58' E 004°47'0 0.0
2018-Feb-16 19:28N 52°58' E 004°47'0 0.0
2018-Feb-16 18:58N 52°58' E 004°47'0 0.0
2018-Feb-16 18:28N 52°58' E 004°47'0 0.0
2018-Feb-16 17:58N 52°58' E 004°47'0 0.0
2018-Feb-16 17:28N 52°58' E 004°47'0 0.0
2018-Feb-16 16:58N 52°58' E 004°47'0 0.0
2018-Feb-16 16:25N 52°58' E 004°47'0 0.0
2018-Feb-16 15:55N 52°58' E 004°47'0 0.0
2018-Feb-16 15:25N 52°58' E 004°47'0 0.0
2018-Feb-16 14:55N 52°58' E 004°47'0 0.0
2018-Feb-16 14:28N 52°58' E 004°47'0 0.0
2018-Feb-16 13:52N 52°58' E 004°47'0 0.0
2018-Feb-16 13:28N 52°58' E 004°47'0 0.0
2018-Feb-16 12:52N 52°58' E 004°47'0 0.0
2018-Feb-16 12:28N 52°58' E 004°47'0 0.0
2018-Feb-16 11:58N 52°58' E 004°47'0 0.0
2018-Feb-16 11:28N 52°58' E 004°47'0 0.0
2018-Feb-16 10:58N 52°58' E 004°47'0 0.0
2018-Feb-16 10:22N 52°58' E 004°47'0 0.0
2018-Feb-16 09:49N 52°58' E 004°47'0 0.0
2018-Feb-16 09:28N 52°58' E 004°47'0 0.0
2018-Feb-16 08:52N 52°58' E 004°47'0 0.0
2018-Feb-16 08:25N 52°58' E 004°47'0 0.0
2018-Feb-16 07:58N 52°58' E 004°47'0 0.0
2018-Feb-16 07:28N 52°58' E 004°47'0 0.0
2018-Feb-16 06:58N 52°58' E 004°47'0 0.0
2018-Feb-16 06:25N 52°58' E 004°47'0 0.0
2018-Feb-16 05:58N 52°58' E 004°47'0 0.0
2018-Feb-16 05:28N 52°58' E 004°47'0 0.0
2018-Feb-16 04:52N 52°58' E 004°47'0 0.0
2018-Feb-16 04:28N 52°58' E 004°47'0 0.0
2018-Feb-16 03:55N 52°58' E 004°47'0 0.0
2018-Feb-16 03:25N 52°58' E 004°47'0 0.0
2018-Feb-16 02:58N 52°58' E 004°47'0 0.0
2018-Feb-16 02:28N 52°58' E 004°47'0 0.0
2018-Feb-16 01:55N 52°58' E 004°47'0 0.0
2018-Feb-16 01:22N 52°58' E 004°47'0 0.0
2018-Feb-16 00:58N 52°58' E 004°47'0 0.0
2018-Feb-16 00:28N 52°58' E 004°47'0 0.0
2018-Feb-15 23:49N 52°58' E 004°47'0 0.0
2018-Feb-15 23:13N 52°58' E 004°47'0 0.0
2018-Feb-15 22:55N 52°58' E 004°47'0 0.0
2018-Feb-15 22:22N 52°58' E 004°47'0 0.0
2018-Feb-15 21:58N 52°58' E 004°47'0 0.0
2018-Feb-15 21:22N 52°58' E 004°47'0 0.0
2018-Feb-15 20:58N 52°58' E 004°47'0 0.0
2018-Feb-15 20:28N 52°58' E 004°47'0 0.0
2018-Feb-15 19:55N 52°58' E 004°47'0 0.0
2018-Feb-15 19:25N 52°58' E 004°47'0 0.0
2018-Feb-15 18:58N 52°58' E 004°47'0 0.0
2018-Feb-15 18:25N 52°58' E 004°47'0 0.0
2018-Feb-15 17:55N 52°58' E 004°47'0 0.0
2018-Feb-15 17:28N 52°58' E 004°47'0 0.0
2018-Feb-15 16:55N 52°58' E 004°47'0 0.0
2018-Feb-15 16:25N 52°58' E 004°47'0 0.0
2018-Feb-15 15:52N 52°58' E 004°47'0 0.0
2018-Feb-15 15:28N 52°58' E 004°47'0 0.0
2018-Feb-15 14:55N 52°58' E 004°47'0 0.0
2018-Feb-15 14:28N 52°58' E 004°47'0 0.0
2018-Feb-15 13:55N 52°58' E 004°47'0 0.0
2018-Feb-15 13:19N 52°58' E 004°47'0 0.0
2018-Feb-15 12:58N 52°58' E 004°47'0 0.0
2018-Feb-15 12:28N 52°58' E 004°47'0 0.0
2018-Feb-15 11:58N 52°58' E 004°47'0 0.0
2018-Feb-15 11:10N 52°58' E 004°47'0 0.0
2018-Feb-15 10:55N 52°58' E 004°47'0 0.0
2018-Feb-15 10:25N 52°58' E 004°47'0 0.0
2018-Feb-15 09:58N 52°58' E 004°47'0 0.0
2018-Feb-15 09:28N 52°58' E 004°47'0 0.0
2018-Feb-15 08:55N 52°58' E 004°47'0 0.0
2018-Feb-15 08:25N 52°58' E 004°47'0 0.0
2018-Feb-15 07:58N 52°58' E 004°47'0 0.0
2018-Feb-15 07:28N 52°58' E 004°47'0 0.0
2018-Feb-15 06:58N 52°58' E 004°47'0 0.0
2018-Feb-15 06:25N 52°58' E 004°47'0 0.0
2018-Feb-15 05:58N 52°58' E 004°47'0 0.0
2018-Feb-15 05:28N 52°58' E 004°47'0 0.0
2018-Feb-15 04:55N 52°58' E 004°47'0 0.0
2018-Feb-15 04:28N 52°58' E 004°47'0 0.0
2018-Feb-15 03:58N 52°58' E 004°47'0 0.0
2018-Feb-15 03:28N 52°58' E 004°47'0 0.0
2018-Feb-15 02:49N 52°58' E 004°47'0 0.0
2018-Feb-15 02:25N 52°58' E 004°47'0 0.0
2018-Feb-15 01:58N 52°58' E 004°47'0 0.0
2018-Feb-15 01:28N 52°58' E 004°47'0 0.0
2018-Feb-15 00:58N 52°58' E 004°47'0 0.0
2018-Feb-15 00:28N 52°58' E 004°47'0 0.0
2018-Feb-14 23:43N 52°58' E 004°47'0 0.0
2018-Feb-14 23:28N 52°58' E 004°47'0 0.0
2018-Feb-14 22:58N 52°58' E 004°47'0 0.0
2018-Feb-14 22:25N 52°58' E 004°47'0 0.0
2018-Feb-14 21:55N 52°58' E 004°47'0 0.0
2018-Feb-14 21:25N 52°58' E 004°47'0 0.0
2018-Feb-14 20:58N 52°58' E 004°47'0 0.0
2018-Feb-14 20:25N 52°58' E 004°47'0 0.0
2018-Feb-14 19:58N 52°58' E 004°47'0 0.0
2018-Feb-14 19:22N 52°58' E 004°47'0 0.0
2018-Feb-14 18:58N 52°58' E 004°47'0 0.0
2018-Feb-14 18:28N 52°58' E 004°47'0 0.0
2018-Feb-14 17:58N 52°58' E 004°47'0 0.0
2018-Feb-14 17:28N 52°58' E 004°47'0 0.0
2018-Feb-14 16:58N 52°58' E 004°47'0 0.0
2018-Feb-14 16:28N 52°58' E 004°47'0 0.0
2018-Feb-14 15:58N 52°58' E 004°47'0 0.0
2018-Feb-14 15:28N 52°58' E 004°47'0 0.0
2018-Feb-14 14:52N 52°58' E 004°47'0 0.0
2018-Feb-14 14:28N 52°58' E 004°47'0 0.0
2018-Feb-14 13:58N 52°58' E 004°47'0 0.0
2018-Feb-14 13:28N 52°58' E 004°47'0 0.0
2018-Feb-14 12:58N 52°58' E 004°47'0 0.0
2018-Feb-14 12:28N 52°58' E 004°47'0 0.0
2018-Feb-14 11:58N 52°58' E 004°47'0 0.0
2018-Feb-14 11:25N 52°58' E 004°47'0 0.0
2018-Feb-14 10:55N 52°58' E 004°47'0 0.0
2018-Feb-14 10:28N 52°58' E 004°47'0 0.0
2018-Feb-14 09:58N 52°58' E 004°47'0 0.0
2018-Feb-14 09:28N 52°58' E 004°47'0 0.0
2018-Feb-14 08:58N 52°58' E 004°47'0 0.0
2018-Feb-14 08:28N 52°58' E 004°47'0 0.0
2018-Feb-14 07:58N 52°58' E 004°47'0 0.0
2018-Feb-14 07:13N 52°58' E 004°47'0 0.0
2018-Feb-14 06:55N 52°58' E 004°47'0 0.0
2018-Feb-14 06:25N 52°58' E 004°47'0 0.0
2018-Feb-14 05:52N 52°58' E 004°47'0 0.0
2018-Feb-14 05:28N 52°58' E 004°47'0 0.0
2018-Feb-14 04:58N 52°58' E 004°47'0 0.0
2018-Feb-14 04:28N 52°58' E 004°47'0 0.0
2018-Feb-14 03:58N 52°58' E 004°47'0 0.0
2018-Feb-14 03:28N 52°58' E 004°47'0 0.0
2018-Feb-14 02:58N 52°58' E 004°47'0 0.0
2018-Feb-14 02:22N 52°58' E 004°47'0 0.0
2018-Feb-14 01:58N 52°58' E 004°47'0 0.0
2018-Feb-14 01:28N 52°58' E 004°47'0 0.0
2018-Feb-14 00:58N 52°58' E 004°47'0 0.0
2018-Feb-14 00:25N 52°58' E 004°47'0 0.0
2018-Feb-13 23:58N 52°58' E 004°47'0 0.0
2018-Feb-13 23:28N 52°58' E 004°47'0 0.0
2018-Feb-13 22:55N 52°58' E 004°47'0 0.0
2018-Feb-13 22:28N 52°58' E 004°47'0 0.0
2018-Feb-13 21:55N 52°58' E 004°47'0 0.0
2018-Feb-13 21:25N 52°58' E 004°47'0 0.0
2018-Feb-13 20:58N 52°58' E 004°47'0 0.0
2018-Feb-13 20:28N 52°58' E 004°47'0 0.0
2018-Feb-13 19:58N 52°58' E 004°47'0 0.0
2018-Feb-13 19:22N 52°58' E 004°47'0 0.0
2018-Feb-13 18:55N 52°58' E 004°47'0 0.0
2018-Feb-13 18:28N 52°58' E 004°47'0 0.0
2018-Feb-13 17:58N 52°58' E 004°47'0 0.0
2018-Feb-13 17:22N 52°58' E 004°47'0 0.0
2018-Feb-13 16:58N 52°58' E 004°47'0 0.0
2018-Feb-13 16:28N 52°58' E 004°47'0 0.0
2018-Feb-13 15:58N 52°58' E 004°47'0 0.0
2018-Feb-13 15:28N 52°58' E 004°47'0 0.0
2018-Feb-13 14:58N 52°58' E 004°47'0 0.0
2018-Feb-13 14:25N 52°58' E 004°47'0 0.0
2018-Feb-13 13:58N 52°58' E 004°47'0 0.0
2018-Feb-13 13:25N 52°58' E 004°47'0 0.0
2018-Feb-13 12:58N 52°58' E 004°47'0 0.0
2018-Feb-13 12:28N 52°58' E 004°47'0 0.0
2018-Feb-13 11:58N 52°58' E 004°47'0 0.0
2018-Feb-13 11:28N 52°58' E 004°47'0 0.0
2018-Feb-13 10:55N 52°58' E 004°47'0 0.0
2018-Feb-13 10:25N 52°58' E 004°47'0 0.0
2018-Feb-13 09:58N 52°58' E 004°47'0 0.0
2018-Feb-13 09:28N 52°58' E 004°47'0 0.0
2018-Feb-13 08:55N 52°58' E 004°47'0 0.0
2018-Feb-13 08:22N 52°58' E 004°47'0 0.0
2018-Feb-13 07:58N 52°58' E 004°47'0 0.0
2018-Feb-13 07:28N 52°58' E 004°47'0 0.0
2018-Feb-13 06:58N 52°58' E 004°47'0 0.0
2018-Feb-13 06:28N 52°58' E 004°47'0 0.0
2018-Feb-13 05:58N 52°58' E 004°47'0 0.0
2018-Feb-13 05:25N 52°58' E 004°47'0 0.0
2018-Feb-13 04:55N 52°58' E 004°47'0 0.0
2018-Feb-13 04:28N 52°58' E 004°47'0 0.0
2018-Feb-13 03:58N 52°58' E 004°47'0 0.0
2018-Feb-13 03:25N 52°58' E 004°47'0 0.0
2018-Feb-13 02:58N 52°58' E 004°47'0 0.0
2018-Feb-13 02:28N 52°58' E 004°47'0 0.0
2018-Feb-13 01:58N 52°58' E 004°47'0 0.0
2018-Feb-13 01:28N 52°58' E 004°47'0 0.0
2018-Feb-13 00:58N 52°58' E 004°47'0 0.0
2018-Feb-13 00:28N 52°58' E 004°47'0 0.0
2018-Feb-12 23:58N 52°58' E 004°47'0 0.0
2018-Feb-12 23:28N 52°58' E 004°47'0 0.0
2018-Feb-12 22:58N 52°58' E 004°47'0 0.0
2018-Feb-12 22:28N 52°58' E 004°47'0 0.0
2018-Feb-12 21:58N 52°58' E 004°47'0 0.0
2018-Feb-12 21:28N 52°58' E 004°47'0 0.0
2018-Feb-12 20:55N 52°58' E 004°47'0 0.0
2018-Feb-12 20:28N 52°58' E 004°47'0 0.0
2018-Feb-12 19:55N 52°58' E 004°47'0 0.0
2018-Feb-12 19:28N 52°58' E 004°47'0 0.0
2018-Feb-12 18:55N 52°58' E 004°47'0 0.0
2018-Feb-12 18:28N 52°58' E 004°47'0 0.0
2018-Feb-12 17:55N 52°58' E 004°47'0 0.0
2018-Feb-12 17:28N 52°58' E 004°47'0 0.0
2018-Feb-12 16:58N 52°58' E 004°47'0 0.0
2018-Feb-12 16:28N 52°58' E 004°47'0 0.0
2018-Feb-12 15:55N 52°58' E 004°47'0 0.0
2018-Feb-12 15:10N 52°58' E 004°47'0 0.0
2018-Feb-12 14:58N 52°58' E 004°47'0 0.0
2018-Feb-12 14:25N 52°58' E 004°47'0 0.0
2018-Feb-12 13:58N 52°58' E 004°47'0 0.0
2018-Feb-12 13:28N 52°58' E 004°47'0 0.0
2018-Feb-12 12:55N 52°58' E 004°47'0 0.0
2018-Feb-12 12:22N 52°58' E 004°47'0 0.0
2018-Feb-12 11:49N 52°58' E 004°47'0 0.0
2018-Feb-12 11:25N 52°58' E 004°47'0 0.0
2018-Feb-12 10:58N 52°58' E 004°47'0 0.0
2018-Feb-12 10:25N 52°58' E 004°47'0 0.0
2018-Feb-12 09:55N 52°58' E 004°47'0 0.0
2018-Feb-12 09:25N 52°58' E 004°47'0 0.0
2018-Feb-12 08:58N 52°58' E 004°47'0 0.0
2018-Feb-12 08:22N 52°58' E 004°47'0 0.0
2018-Feb-12 07:55N 52°58' E 004°47'0 0.0
2018-Feb-12 07:28N 52°58' E 004°47'0 0.0
2018-Feb-12 06:49N 52°58' E 004°47'0 0.0
2018-Feb-12 06:25N 52°58' E 004°47'0 0.0
2018-Feb-12 05:58N 52°58' E 004°47'0 0.0
2018-Feb-12 05:28N 52°58' E 004°47'0 0.0
2018-Feb-12 04:55N 52°58' E 004°47'0 0.0
2018-Feb-12 04:28N 52°58' E 004°47'0 0.0
2018-Feb-12 03:58N 52°58' E 004°47'0 0.0
2018-Feb-12 03:10N 52°58' E 004°47'0 0.0
2018-Feb-12 02:58N 52°58' E 004°47'0 0.0
2018-Feb-12 02:25N 52°58' E 004°47'0 0.0
2018-Feb-12 01:49N 52°58' E 004°47'0 0.0
2018-Feb-12 01:19N 52°58' E 004°47'0 0.0
2018-Feb-12 00:58N 52°58' E 004°47'0 0.0
2018-Feb-12 00:28N 52°58' E 004°47'0 0.0
2018-Feb-11 23:58N 52°58' E 004°47'0 0.0
2018-Feb-11 23:22N 52°58' E 004°47'0 0.0
2018-Feb-11 22:58N 52°58' E 004°47'0 0.0
2018-Feb-11 22:28N 52°58' E 004°47'0 0.0
2018-Feb-11 21:58N 52°58' E 004°47'0 0.0
2018-Feb-11 21:22N 52°58' E 004°47'0 0.0
2018-Feb-11 20:58N 52°58' E 004°47'0 0.0
2018-Feb-11 20:28N 52°58' E 004°47'0 0.0
2018-Feb-11 19:58N 52°58' E 004°47'0 0.0
2018-Feb-11 19:28N 52°58' E 004°47'0 0.0
2018-Feb-11 18:55N 52°58' E 004°47'0 0.0
2018-Feb-11 18:28N 52°58' E 004°47'  

Dump ship's entire track history